Portada
METAR-TAF:

METAR-TAF

Aeroports :

Topcliffe, Anglaterra

latitud: 54-12N, longitud: 001-23W, altitud: 28 m

Observació

L'informe es va fer fa 38 minuts, a les 22:50 UTC
Vent 3 kt del Sud/Sud-Est
Temperatura 13°C
Humitat 77%
Pressió 1024 hPa
Visibilitat 10 km o més

METAR: EGXZ 122250Z AUTO 16003KT 9999 BKN060/// BKN160/// BKN200/// 13/09 Q1024

Hora: 00:28 (23:28 UTC)


TAF: manca

Observacions i pronòstics meteorològics de més de 4000 aeroports (METAR i TAF).

Les estacions disponibles són els punts grocs i vermells al mapa.

Posi el ratolí al punt desitjat per veure el nom de l'estació.

Feu clic per veure les observacions i els pronòstics meteorològics.

Per canviar el mapa: feu clic els botons verds amb una creu de color negre per apropar; al botó verd amb un guió per allunyar la imatge; o en les fletxes verdes per a mapes adjacents.


METAR-TAF: